createdAt,value
2022-08-21T00:00:13.011Z,95.35
2022-08-21T00:00:33.094Z,95.33
2022-08-21T00:00:53.185Z,95.28
2022-08-21T00:01:13.246Z,95.31
2022-08-21T00:01:33.330Z,95.3
2022-08-21T00:01:53.473Z,95.23
2022-08-21T00:02:13.463Z,95.15
2022-08-21T00:02:33.583Z,95.09
2022-08-21T00:02:53.572Z,95.07
2022-08-21T00:03:13.663Z,95.05
2022-08-21T00:03:33.726Z,95.04
2022-08-21T00:03:53.791Z,95.07
2022-08-21T00:04:14.667Z,95.15
2022-08-21T00:04:33.923Z,95.15
2022-08-21T00:04:57.615Z,95.14
2022-08-21T00:05:14.056Z,95.09
2022-08-21T00:05:34.105Z,95.04
2022-08-21T00:05:54.166Z,95.06
2022-08-21T00:06:14.223Z,95.13
2022-08-21T00:06:34.293Z,95.18
2022-08-21T00:06:54.388Z,95.16
2022-08-21T00:07:14.440Z,95.09
2022-08-21T00:07:34.523Z,95.06
2022-08-21T00:07:54.601Z,95.06
2022-08-21T00:08:14.687Z,95.06
2022-08-21T00:08:34.771Z,95.08
2022-08-21T00:08:54.838Z,95.07
2022-08-21T00:09:14.867Z,95.12
2022-08-21T00:09:34.929Z,95.14
2022-08-21T00:09:54.980Z,95.16
2022-08-21T00:10:15.068Z,95.16
2022-08-21T00:10:35.127Z,95.2
2022-08-21T00:10:55.197Z,95.15
2022-08-21T00:11:15.242Z,95.13
2022-08-21T00:11:35.334Z,95.09
2022-08-21T00:11:55.401Z,95.07
2022-08-21T00:12:15.496Z,95.07
2022-08-21T00:12:35.553Z,95.12
2022-08-21T00:12:55.640Z,95.23
2022-08-21T00:13:16.217Z,95.31
2022-08-21T00:13:35.747Z,95.34
2022-08-21T00:13:55.799Z,95.41
2022-08-21T00:14:15.875Z,95.49
2022-08-21T00:14:35.943Z,95.62
2022-08-21T00:14:58.102Z,95.72
2022-08-21T00:15:16.041Z,95.78
2022-08-21T00:15:36.101Z,95.77
2022-08-21T00:15:56.134Z,95.84
2022-08-21T00:16:16.209Z,95.79
2022-08-21T00:16:36.268Z,95.7
2022-08-21T00:16:57.287Z,95.59
2022-08-21T00:17:16.380Z,95.43
2022-08-21T00:17:36.448Z,95.32
2022-08-21T00:17:56.481Z,95.22
2022-08-21T00:18:16.570Z,95.26
2022-08-21T00:18:36.604Z,95.3
2022-08-21T00:18:56.684Z,95.36
2022-08-21T00:19:16.722Z,95.45
2022-08-21T00:19:36.826Z,95.51
2022-08-21T00:19:56.885Z,95.56
2022-08-21T00:20:16.921Z,95.54
2022-08-21T00:20:36.981Z,95.58
2022-08-21T00:20:57.012Z,95.62
2022-08-21T00:21:17.063Z,95.67
2022-08-21T00:21:37.137Z,95.73
2022-08-21T00:21:57.220Z,95.7
2022-08-21T00:22:17.286Z,95.67
2022-08-21T00:22:37.299Z,95.63
2022-08-21T00:22:57.605Z,95.61
2022-08-21T00:23:17.482Z,95.61
2022-08-21T00:23:37.490Z,95.69
2022-08-21T00:23:57.566Z,95.74
2022-08-21T00:24:17.637Z,95.84
2022-08-21T00:24:37.706Z,95.91
2022-08-21T00:24:57.776Z,95.94
2022-08-21T00:25:17.843Z,95.95
2022-08-21T00:25:37.917Z,95.94
2022-08-21T00:25:57.941Z,95.87
2022-08-21T00:26:18.025Z,95.8
2022-08-21T00:26:38.067Z,95.75
2022-08-21T00:26:58.121Z,95.65
2022-08-21T00:27:18.178Z,95.55
2022-08-21T00:27:38.247Z,95.42
2022-08-21T00:27:58.343Z,95.26
2022-08-21T00:28:18.426Z,95.09
2022-08-21T00:28:38.480Z,94.93
2022-08-21T00:28:59.011Z,94.84
2022-08-21T00:29:18.588Z,94.87
2022-08-21T00:29:38.663Z,94.91
2022-08-21T00:29:58.760Z,94.84
2022-08-21T00:30:23.275Z,94.88
2022-08-21T00:30:38.853Z,94.88
2022-08-21T00:30:58.920Z,94.83
2022-08-21T00:31:18.975Z,94.84
2022-08-21T00:31:39.013Z,94.8
2022-08-21T00:31:59.088Z,94.94
2022-08-21T00:32:19.152Z,95.02
2022-08-21T00:32:39.230Z,95.07
2022-08-21T00:32:59.409Z,95.1
2022-08-21T00:33:19.331Z,95.09
2022-08-21T00:33:39.403Z,95.07
2022-08-21T00:34:00.803Z,95.14
2022-08-21T00:34:19.500Z,95.12
2022-08-21T00:34:39.589Z,95.13
2022-08-21T00:34:59.679Z,95.13
2022-08-21T00:35:19.745Z,95.15
2022-08-21T00:35:39.823Z,95.16
2022-08-21T00:35:59.852Z,95.17
2022-08-21T00:36:19.928Z,95.23
2022-08-21T00:36:39.989Z,95.17
2022-08-21T00:37:00.012Z,95.15
2022-08-21T00:37:20.080Z,95.14
2022-08-21T00:37:40.137Z,95.1
2022-08-21T00:38:00.222Z,95.14
2022-08-21T00:38:20.248Z,95.16
2022-08-21T00:38:40.311Z,95.13
2022-08-21T00:39:00.390Z,95.19
2022-08-21T00:39:20.481Z,95.19
2022-08-21T00:39:40.635Z,95.19
2022-08-21T00:40:00.673Z,95.21
2022-08-21T00:40:20.711Z,95.23
2022-08-21T00:40:40.712Z,95.26
2022-08-21T00:41:02.807Z,95.23
2022-08-21T00:41:36.371Z,95.13
2022-08-21T00:41:40.873Z,95.15
2022-08-21T00:42:00.954Z,95.16
2022-08-21T00:42:20.985Z,95.24
2022-08-21T00:42:41.032Z,95.34
2022-08-21T00:43:01.234Z,95.44
2022-08-21T00:43:21.145Z,95.48
2022-08-21T00:43:41.243Z,95.45
2022-08-21T00:44:01.316Z,95.44
2022-08-21T00:44:21.375Z,95.41
2022-08-21T00:44:41.432Z,95.52
2022-08-21T00:45:01.482Z,95.59
2022-08-21T00:45:21.552Z,95.74
2022-08-21T00:45:41.614Z,95.81
2022-08-21T00:46:01.661Z,95.82
2022-08-21T00:46:21.698Z,95.77
2022-08-21T00:46:41.755Z,95.8
2022-08-21T00:47:01.832Z,95.84
2022-08-21T00:47:21.926Z,95.85
2022-08-21T00:47:41.959Z,95.91
2022-08-21T00:48:02.036Z,95.99
2022-08-21T00:48:22.103Z,96.12
2022-08-21T00:48:42.187Z,96.18
2022-08-21T00:49:02.216Z,96.35
2022-08-21T00:49:22.324Z,96.39
2022-08-21T00:49:42.361Z,96.42
2022-08-21T00:50:02.423Z,96.42
2022-08-21T00:50:22.484Z,96.51
2022-08-21T00:50:42.521Z,96.55
2022-08-21T00:51:02.597Z,96.57
2022-08-21T00:51:22.657Z,96.59
2022-08-21T00:51:42.714Z,96.7
2022-08-21T00:52:02.785Z,96.67
2022-08-21T00:52:22.849Z,96.71
2022-08-21T00:52:42.880Z,96.74
2022-08-21T00:53:02.955Z,96.68
2022-08-21T00:53:23.014Z,96.67
2022-08-21T00:53:43.060Z,96.65
2022-08-21T00:54:03.225Z,96.56
2022-08-21T00:54:23.198Z,96.52
2022-08-21T00:54:43.278Z,96.42
2022-08-21T00:55:03.275Z,96.31
2022-08-21T00:55:23.713Z,96.2
2022-08-21T00:55:43.430Z,96.22
2022-08-21T00:56:03.511Z,96.2
2022-08-21T00:56:23.594Z,96.21
2022-08-21T00:56:43.656Z,96.21
2022-08-21T00:57:03.727Z,96.18
2022-08-21T00:57:23.767Z,96.15
2022-08-21T00:57:43.816Z,96.15
2022-08-21T00:58:03.894Z,96.15
2022-08-21T00:58:23.927Z,96.18
2022-08-21T00:58:44.013Z,96.18
2022-08-21T00:59:04.072Z,96.27
2022-08-21T00:59:24.237Z,96.33
2022-08-21T00:59:44.159Z,96.31
2022-08-21T01:00:04.201Z,96.31
2022-08-21T01:00:24.266Z,96.31
2022-08-21T01:00:44.386Z,96.32
2022-08-21T01:01:08.492Z,96.36
2022-08-21T01:01:24.492Z,96.44
2022-08-21T01:01:44.480Z,96.47
2022-08-21T01:02:04.543Z,96.47
2022-08-21T01:02:24.631Z,96.41
2022-08-21T01:02:44.682Z,96.4
2022-08-21T01:03:07.268Z,96.44
2022-08-21T01:03:24.863Z,96.43
2022-08-21T01:03:45.382Z,96.41
2022-08-21T01:04:04.992Z,96.46
2022-08-21T01:04:25.063Z,96.42
2022-08-21T01:04:45.094Z,96.43
2022-08-21T01:05:05.169Z,96.39
2022-08-21T01:05:25.180Z,96.42
2022-08-21T01:05:45.239Z,96.37
2022-08-21T01:06:05.318Z,96.38
2022-08-21T01:06:25.368Z,96.39
2022-08-21T01:06:45.422Z,96.34
2022-08-21T01:07:05.495Z,96.38
2022-08-21T01:07:25.546Z,96.39
2022-08-21T01:07:45.605Z,96.44
2022-08-21T01:08:05.659Z,96.48
2022-08-21T01:08:25.737Z,96.55
2022-08-21T01:08:46.926Z,96.61
2022-08-21T01:09:05.866Z,96.74
2022-08-21T01:09:25.955Z,96.86
2022-08-21T01:09:46.003Z,96.91
2022-08-21T01:10:06.042Z,96.91
2022-08-21T01:10:26.100Z,96.92
2022-08-21T01:10:46.196Z,96.96
2022-08-21T01:11:06.233Z,97.01
2022-08-21T01:11:26.298Z,96.98
2022-08-21T01:11:46.366Z,96.95
2022-08-21T01:12:06.414Z,96.91
2022-08-21T01:12:26.463Z,96.91
2022-08-21T01:12:46.512Z,96.87
2022-08-21T01:13:06.570Z,96.89
2022-08-21T01:13:26.632Z,96.86
2022-08-21T01:13:46.673Z,96.82
2022-08-21T01:14:06.721Z,96.85
2022-08-21T01:14:26.790Z,96.89
2022-08-21T01:14:46.839Z,96.92
2022-08-21T01:15:06.901Z,96.92
2022-08-21T01:15:26.966Z,96.93
2022-08-21T01:15:47.030Z,96.92
2022-08-21T01:16:07.125Z,96.97
2022-08-21T01:16:27.184Z,96.96
2022-08-21T01:16:47.285Z,96.93
2022-08-21T01:17:07.295Z,96.95
2022-08-21T01:17:27.366Z,96.92
2022-08-21T01:17:47.439Z,96.91
2022-08-21T01:18:07.497Z,96.9
2022-08-21T01:18:27.547Z,96.91
2022-08-21T01:18:47.602Z,96.95
2022-08-21T01:19:07.649Z,96.95
2022-08-21T01:19:27.707Z,96.98
2022-08-21T01:19:47.767Z,97.03
2022-08-21T01:20:07.795Z,97.06
2022-08-21T01:20:32.852Z,97.09
2022-08-21T01:20:47.909Z,97.07
2022-08-21T01:21:07.986Z,97.02
2022-08-21T01:21:28.690Z,97.07
2022-08-21T01:21:48.061Z,97.04
2022-08-21T01:22:08.126Z,97.01
2022-08-21T01:22:28.192Z,96.95
2022-08-21T01:22:48.250Z,96.94
2022-08-21T01:23:08.312Z,96.95
2022-08-21T01:23:28.354Z,96.99
2022-08-21T01:23:48.431Z,96.97
2022-08-21T01:24:08.458Z,96.95
2022-08-21T01:24:28.556Z,96.9
2022-08-21T01:24:48.577Z,96.9
2022-08-21T01:25:08.630Z,96.92
2022-08-21T01:25:28.709Z,96.89
2022-08-21T01:25:48.757Z,96.88
2022-08-21T01:26:08.816Z,96.87
2022-08-21T01:26:33.907Z,96.84
2022-08-21T01:26:48.951Z,96.87
2022-08-21T01:27:09.036Z,96.86
2022-08-21T01:27:29.096Z,96.84
2022-08-21T01:27:49.123Z,96.89
2022-08-21T01:28:09.205Z,96.87
2022-08-21T01:28:29.266Z,96.86
2022-08-21T01:28:49.310Z,96.88
2022-08-21T01:29:09.345Z,96.85
2022-08-21T01:29:29.406Z,96.74
2022-08-21T01:29:49.490Z,96.71
2022-08-21T01:30:09.572Z,96.73
2022-08-21T01:30:29.621Z,96.71
2022-08-21T01:30:49.675Z,96.61
2022-08-21T01:31:09.753Z,96.61
2022-08-21T01:31:29.794Z,96.64
2022-08-21T01:31:49.836Z,96.66
2022-08-21T01:32:09.907Z,96.61
2022-08-21T01:32:29.993Z,96.58
2022-08-21T01:32:50.063Z,96.6
2022-08-21T01:33:10.102Z,96.52
2022-08-21T01:33:30.137Z,96.42
2022-08-21T01:33:50.183Z,96.42
2022-08-21T01:34:10.254Z,96.43
2022-08-21T01:34:30.288Z,96.46
2022-08-21T01:34:50.357Z,96.41
2022-08-21T01:35:10.433Z,96.37
2022-08-21T01:35:30.479Z,96.35
2022-08-21T01:35:50.570Z,96.34
2022-08-21T01:36:10.591Z,96.34
2022-08-21T01:36:30.656Z,96.3
2022-08-21T01:36:50.721Z,96.26
2022-08-21T01:37:10.782Z,96.27
2022-08-21T01:37:30.862Z,96.34
2022-08-21T01:37:50.919Z,96.46
2022-08-21T01:38:11.011Z,96.51
2022-08-21T01:38:31.058Z,96.52
2022-08-21T01:38:51.109Z,96.46
2022-08-21T01:39:11.175Z,96.42
2022-08-21T01:39:31.233Z,96.41
2022-08-21T01:39:51.381Z,96.45
2022-08-21T01:40:11.356Z,96.49
2022-08-21T01:40:31.367Z,96.54
2022-08-21T01:40:51.462Z,96.56
2022-08-21T01:41:11.491Z,96.54
2022-08-21T01:41:31.576Z,96.56
2022-08-21T01:41:51.602Z,96.55
2022-08-21T01:42:11.662Z,96.53
2022-08-21T01:42:31.733Z,96.51
2022-08-21T01:42:51.818Z,96.53
2022-08-21T01:43:11.813Z,96.57
2022-08-21T01:43:39.187Z,96.57
2022-08-21T01:43:51.929Z,96.6
2022-08-21T01:44:12.010Z,96.64
2022-08-21T01:44:32.079Z,96.6
2022-08-21T01:44:54.719Z,96.61
2022-08-21T01:45:12.192Z,96.55
2022-08-21T01:45:32.244Z,96.58
2022-08-21T01:45:52.311Z,96.58
2022-08-21T01:46:12.390Z,96.56
2022-08-21T01:46:32.467Z,96.46
2022-08-21T01:46:52.521Z,96.38
2022-08-21T01:47:12.603Z,96.35
2022-08-21T01:47:32.629Z,96.4
2022-08-21T01:47:52.684Z,96.46
2022-08-21T01:48:12.761Z,96.45
2022-08-21T01:48:32.810Z,96.49
2022-08-21T01:48:52.911Z,96.52
2022-08-21T01:49:12.967Z,96.59
2022-08-21T01:49:33.041Z,96.63
2022-08-21T01:49:53.100Z,96.63
2022-08-21T01:50:13.195Z,96.67
2022-08-21T01:50:33.242Z,96.61
2022-08-21T01:50:56.926Z,96.65
2022-08-21T01:51:13.366Z,96.63
2022-08-21T01:51:33.411Z,96.69
2022-08-21T01:51:53.475Z,96.7
2022-08-21T01:52:13.551Z,96.76
2022-08-21T01:52:33.617Z,96.77
2022-08-21T01:52:53.675Z,96.83
2022-08-21T01:53:13.710Z,96.9
2022-08-21T01:53:33.778Z,96.93
2022-08-21T01:53:53.833Z,96.84
2022-08-21T01:54:13.881Z,96.77
2022-08-21T01:54:33.962Z,96.69
2022-08-21T01:54:55.097Z,96.64
2022-08-21T01:55:14.070Z,96.56
2022-08-21T01:55:34.120Z,96.51
2022-08-21T01:55:54.189Z,96.59
2022-08-21T01:56:14.192Z,96.66
2022-08-21T01:56:34.276Z,96.73
2022-08-21T01:56:54.315Z,96.73
2022-08-21T01:57:14.382Z,96.77
2022-08-21T01:57:34.459Z,96.9
2022-08-21T01:57:54.488Z,96.93
2022-08-21T01:58:14.540Z,96.98
2022-08-21T01:58:34.610Z,96.92
2022-08-21T01:58:54.631Z,96.9
2022-08-21T01:59:14.695Z,96.89
2022-08-21T01:59:34.750Z,96.9
2022-08-21T01:59:54.767Z,96.9
2022-08-21T02:00:14.845Z,96.85
2022-08-21T02:00:34.953Z,96.83
2022-08-21T02:00:54.992Z,96.85
2022-08-21T02:01:15.085Z,96.82
2022-08-21T02:01:35.056Z,96.87
2022-08-21T02:01:55.148Z,96.89
2022-08-21T02:03:10.351Z,96.96
2022-08-21T02:03:35.291Z,97.01
2022-08-21T02:03:36.408Z,97.05
2022-08-21T02:03:55.426Z,97.05
2022-08-21T02:04:15.489Z,97.01
2022-08-21T02:04:35.515Z,96.95
2022-08-21T02:04:55.544Z,96.87
2022-08-21T02:05:15.614Z,96.9
2022-08-21T02:06:55.914Z,96.91
2022-08-21T02:07:15.959Z,96.9
2022-08-21T02:07:36.009Z,96.86
2022-08-21T02:07:56.049Z,96.85
2022-08-21T02:08:16.111Z,96.82
2022-08-21T02:08:36.167Z,96.81
2022-08-21T02:08:56.253Z,96.83
2022-08-21T02:09:16.326Z,96.84
2022-08-21T02:09:36.405Z,96.82
2022-08-21T02:09:56.423Z,96.82
2022-08-21T02:10:16.474Z,96.8
2022-08-21T02:10:36.530Z,96.84
2022-08-21T02:10:56.601Z,96.88
2022-08-21T02:11:16.650Z,96.87
2022-08-21T02:11:36.721Z,96.78
2022-08-21T02:11:56.779Z,96.73
2022-08-21T02:12:16.846Z,96.74
2022-08-21T02:12:36.912Z,96.7
2022-08-21T02:12:57.150Z,96.67
2022-08-21T02:13:17.015Z,96.68
2022-08-21T02:13:37.099Z,96.66
2022-08-21T02:13:57.131Z,96.61
2022-08-21T02:14:30.281Z,96.57
2022-08-21T02:14:37.281Z,96.53
2022-08-21T02:14:57.329Z,96.44
2022-08-21T02:15:17.435Z,96.44
2022-08-21T02:15:37.503Z,96.41
2022-08-21T02:15:57.558Z,96.4
2022-08-21T02:16:19.502Z,96.44
2022-08-21T02:16:37.638Z,96.48
2022-08-21T02:17:03.358Z,96.53
2022-08-21T02:17:17.783Z,96.48
2022-08-21T02:17:37.846Z,96.51
2022-08-21T02:17:57.930Z,96.48
2022-08-21T02:18:17.976Z,96.54
2022-08-21T02:18:38.066Z,96.5
2022-08-21T02:18:58.097Z,96.51
2022-08-21T02:19:18.152Z,96.54
2022-08-21T02:19:40.087Z,96.65
2022-08-21T02:19:58.241Z,96.67
2022-08-21T02:20:18.309Z,96.84
2022-08-21T02:20:38.356Z,96.93
2022-08-21T02:20:58.406Z,96.89
2022-08-21T02:21:18.467Z,96.93
2022-08-21T02:21:38.531Z,96.99
2022-08-21T02:21:58.617Z,97.01
2022-08-21T02:22:18.677Z,97.03
2022-08-21T02:22:38.709Z,97.02
2022-08-21T02:22:59.018Z,97
2022-08-21T02:23:19.336Z,97.03
2022-08-21T02:23:38.854Z,97.06
2022-08-21T02:23:58.920Z,97.06
2022-08-21T02:24:18.957Z,97.07
2022-08-21T02:24:53.920Z,97.01
2022-08-21T02:24:59.089Z,96.96
2022-08-21T02:25:19.138Z,96.96
2022-08-21T02:25:39.189Z,96.91
2022-08-21T02:25:59.258Z,96.97
2022-08-21T02:26:19.321Z,96.96
2022-08-21T02:26:39.370Z,96.99
2022-08-21T02:26:59.420Z,96.98
2022-08-21T02:27:19.490Z,96.95
2022-08-21T02:27:39.502Z,97.05
2022-08-21T02:27:59.575Z,97.1
2022-08-21T02:28:19.654Z,97.14
2022-08-21T02:28:39.720Z,97.14
2022-08-21T02:28:59.787Z,97.09
2022-08-21T02:29:19.851Z,97.07
2022-08-21T02:29:39.897Z,97.06
2022-08-21T02:29:59.969Z,97.07
2022-08-21T02:30:20.037Z,97.09
2022-08-21T02:30:40.105Z,97.09
2022-08-21T02:31:00.217Z,97.08
2022-08-21T02:31:20.261Z,97.18
2022-08-21T02:31:40.308Z,97.26
2022-08-21T02:32:00.369Z,97.28
2022-08-21T02:32:20.453Z,97.32
2022-08-21T02:32:40.506Z,97.41
2022-08-21T02:33:00.576Z,97.5
2022-08-21T02:33:20.642Z,97.56
2022-08-21T02:33:40.705Z,97.6
2022-08-21T02:34:00.763Z,97.57
2022-08-21T02:34:20.810Z,97.64
2022-08-21T02:34:40.857Z,97.69
2022-08-21T02:35:00.960Z,97.7
2022-08-21T02:35:21.008Z,97.76
2022-08-21T02:35:41.084Z,97.79
2022-08-21T02:36:01.137Z,97.83
2022-08-21T02:36:21.191Z,97.86
2022-08-21T02:36:41.263Z,97.92
2022-08-21T02:37:01.304Z,97.96
2022-08-21T02:37:21.333Z,97.95
2022-08-21T02:37:41.408Z,98.01
2022-08-21T02:38:01.472Z,97.97
2022-08-21T02:38:21.502Z,97.99
2022-08-21T02:38:41.562Z,98.01
2022-08-21T02:39:01.620Z,98.03
2022-08-21T02:39:27.089Z,98.03
2022-08-21T02:39:41.797Z,98
2022-08-21T02:40:01.878Z,97.94
2022-08-21T02:40:21.939Z,97.95
2022-08-21T02:40:47.807Z,97.88
2022-08-21T02:41:01.964Z,97.86
2022-08-21T02:41:22.057Z,97.9
2022-08-21T02:41:42.125Z,97.82
2022-08-21T02:42:02.175Z,97.88
2022-08-21T02:42:22.198Z,97.82
2022-08-21T02:42:42.258Z,97.79
2022-08-21T02:43:02.312Z,97.76
2022-08-21T02:43:22.395Z,97.7
2022-08-21T02:43:42.475Z,97.69
2022-08-21T02:44:02.546Z,97.66
2022-08-21T02:44:30.108Z,97.62
2022-08-21T02:44:42.681Z,97.57
2022-08-21T02:45:02.722Z,97.53
2022-08-21T02:45:22.771Z,97.53
2022-08-21T02:45:42.837Z,97.45
2022-08-21T02:46:02.896Z,97.45
2022-08-21T02:46:22.961Z,97.41
2022-08-21T02:46:43.017Z,97.44
2022-08-21T02:47:03.087Z,97.41
2022-08-21T02:47:23.144Z,97.43
2022-08-21T02:47:43.208Z,97.42
2022-08-21T02:48:04.168Z,97.44
2022-08-21T02:48:23.317Z,97.51
2022-08-21T02:48:43.374Z,97.49
2022-08-21T02:49:03.437Z,97.54
2022-08-21T02:49:23.501Z,97.54
2022-08-21T02:49:43.575Z,97.54
2022-08-21T02:50:03.634Z,97.56
2022-08-21T02:50:23.706Z,97.59
2022-08-21T02:50:43.752Z,97.59
2022-08-21T02:51:03.795Z,97.6
2022-08-21T02:51:23.862Z,97.62
2022-08-21T02:51:43.906Z,97.6
2022-08-21T02:52:03.962Z,97.64
2022-08-21T02:52:24.011Z,97.68
2022-08-21T02:52:44.069Z,97.75
2022-08-21T02:53:04.135Z,97.73
2022-08-21T02:53:24.173Z,97.79
2022-08-21T02:53:44.224Z,97.76
2022-08-21T02:54:04.280Z,97.77
2022-08-21T02:54:24.323Z,97.72
2022-08-21T02:54:44.384Z,97.72
2022-08-21T02:55:04.457Z,97.78
2022-08-21T02:55:24.499Z,97.82
2022-08-21T02:55:44.579Z,97.83
2022-08-21T02:56:04.670Z,97.83
2022-08-21T02:56:24.693Z,97.86
2022-08-21T02:56:44.780Z,97.9
2022-08-21T02:57:04.832Z,97.92
2022-08-21T02:57:24.958Z,97.94
2022-08-21T02:57:44.987Z,97.97
2022-08-21T02:58:05.055Z,97.99
2022-08-21T02:58:25.147Z,98.03
2022-08-21T02:58:45.188Z,98.01
2022-08-21T02:59:05.241Z,98
2022-08-21T02:59:25.324Z,98.02
2022-08-21T02:59:45.388Z,98.01
2022-08-21T03:00:05.471Z,97.99
2022-08-21T03:00:25.512Z,98.03
2022-08-21T03:00:45.541Z,98.01
2022-08-21T03:01:05.622Z,97.98
2022-08-21T03:01:25.730Z,97.99
2022-08-21T03:01:45.769Z,97.98
2022-08-21T03:02:05.893Z,98.01
2022-08-21T03:02:26.643Z,97.99
2022-08-21T03:02:45.884Z,98.06
2022-08-21T03:03:05.943Z,98.05
2022-08-21T03:03:26.002Z,98.06
2022-08-21T03:03:46.060Z,98.09
2022-08-21T03:04:06.145Z,98.1
2022-08-21T03:04:26.169Z,98.14
2022-08-21T03:04:46.881Z,98.11
2022-08-21T03:05:06.296Z,98.13
2022-08-21T03:05:26.373Z,98.13
2022-08-21T03:05:46.439Z,98.2
2022-08-21T03:06:06.510Z,98.23
2022-08-21T03:06:26.571Z,98.26
2022-08-21T03:06:46.623Z,98.27
2022-08-21T03:07:06.680Z,98.31
2022-08-21T03:07:26.727Z,98.32
2022-08-21T03:07:46.785Z,98.36
2022-08-21T03:08:06.850Z,98.41
2022-08-21T03:08:27.793Z,98.39
2022-08-21T03:08:47.012Z,98.38
2022-08-21T03:09:07.095Z,98.45
2022-08-21T03:09:27.125Z,98.46
2022-08-21T03:09:55.864Z,98.46
2022-08-21T03:10:07.279Z,98.44
2022-08-21T03:10:27.352Z,98.49
2022-08-21T03:10:47.407Z,98.49
2022-08-21T03:11:07.809Z,98.51
2022-08-21T03:11:27.522Z,98.47
2022-08-21T03:11:47.606Z,98.51
2022-08-21T03:12:07.681Z,98.51
2022-08-21T03:12:29.804Z,98.5
2022-08-21T03:12:47.866Z,98.5
2022-08-21T03:13:07.941Z,98.46
2022-08-21T03:13:28.014Z,98.51
2022-08-21T03:13:48.088Z,98.49
2022-08-21T03:14:08.170Z,98.5
2022-08-21T03:14:28.245Z,98.49
2022-08-21T03:14:48.292Z,98.51
2022-08-21T03:15:08.342Z,98.47
2022-08-21T03:15:28.405Z,98.5
2022-08-21T03:15:48.479Z,98.53
2022-08-21T03:16:09.911Z,98.54
2022-08-21T03:16:31.998Z,98.54
2022-08-21T03:16:48.702Z,98.59
2022-08-21T03:17:08.781Z,98.62
2022-08-21T03:17:29.774Z,98.65
2022-08-21T03:17:48.829Z,98.65
2022-08-21T03:18:08.912Z,98.7
2022-08-21T03:18:28.937Z,98.68
2022-08-21T03:18:49.024Z,98.65
2022-08-21T03:19:09.060Z,98.71
2022-08-21T03:19:29.111Z,98.74
2022-08-21T03:19:49.160Z,98.69
2022-08-21T03:20:09.263Z,98.69
2022-08-21T03:20:29.242Z,98.67
2022-08-21T03:20:49.330Z,98.7
2022-08-21T03:21:09.430Z,98.69
2022-08-21T03:21:29.451Z,98.69
2022-08-21T03:21:49.500Z,98.66
2022-08-21T03:22:09.560Z,98.71
2022-08-21T03:22:30.808Z,98.7
2022-08-21T03:22:52.950Z,98.72
2022-08-21T03:23:13.186Z,98.74
2022-08-21T03:23:32.726Z,98.75
2022-08-21T03:23:49.839Z,98.76
2022-08-21T03:24:09.918Z,98.77
2022-08-21T03:24:30.004Z,98.75
2022-08-21T03:24:50.048Z,98.79
2022-08-21T03:25:10.882Z,98.78
2022-08-21T03:25:39.869Z,98.79
2022-08-21T03:25:50.264Z,98.79
2022-08-21T03:26:10.317Z,98.8
2022-08-21T03:26:30.346Z,98.83
2022-08-21T03:26:50.422Z,98.79
2022-08-21T03:27:10.504Z,98.8
2022-08-21T03:27:30.539Z,98.81
2022-08-21T03:27:50.606Z,98.76
2022-08-21T03:28:12.969Z,98.76
2022-08-21T03:28:30.727Z,98.74
2022-08-21T03:28:50.808Z,98.72
2022-08-21T03:29:10.877Z,98.7
2022-08-21T03:29:30.955Z,98.67
2022-08-21T03:29:51.010Z,98.68
2022-08-21T03:30:11.093Z,98.68
2022-08-21T03:30:31.131Z,98.72
2022-08-21T03:30:51.194Z,98.68
2022-08-21T03:31:11.256Z,98.71
2022-08-21T03:31:31.337Z,98.64
2022-08-21T03:31:51.422Z,98.68
2022-08-21T03:32:11.473Z,98.67
2022-08-21T03:32:31.529Z,98.63
2022-08-21T03:32:51.608Z,98.61
2022-08-21T03:33:12.302Z,98.59
2022-08-21T03:33:31.689Z,98.53
2022-08-21T03:33:51.755Z,98.52
2022-08-21T03:34:11.816Z,98.46
2022-08-21T03:34:31.893Z,98.45
2022-08-21T03:34:51.925Z,98.44
2022-08-21T03:35:11.996Z,98.43
2022-08-21T03:35:32.042Z,98.43
2022-08-21T03:35:52.126Z,98.41
2022-08-21T03:36:12.191Z,98.42
2022-08-21T03:36:32.293Z,98.39
2022-08-21T03:36:52.336Z,98.4
2022-08-21T03:37:12.406Z,98.36
2022-08-21T03:37:32.482Z,98.36
2022-08-21T03:37:52.527Z,98.36
2022-08-21T03:38:12.601Z,98.35
2022-08-21T03:38:32.646Z,98.33
2022-08-21T03:38:52.710Z,98.37
2022-08-21T03:39:12.749Z,98.35
2022-08-21T03:39:32.837Z,98.34
2022-08-21T03:39:52.937Z,98.35
2022-08-21T03:40:13.035Z,98.32
2022-08-21T03:40:32.977Z,98.34
2022-08-21T03:40:53.083Z,98.35
2022-08-21T03:41:13.097Z,98.36
2022-08-21T03:41:33.165Z,98.37
2022-08-21T03:41:53.215Z,98.37
2022-08-21T03:42:13.312Z,98.39
2022-08-21T03:42:33.373Z,98.41
2022-08-21T03:42:53.428Z,98.45
2022-08-21T03:43:13.484Z,98.39
2022-08-21T03:43:33.529Z,98.44
2022-08-21T03:43:53.565Z,98.44
2022-08-21T03:44:13.643Z,98.48
2022-08-21T03:44:33.705Z,98.46
2022-08-21T03:44:53.758Z,98.48
2022-08-21T03:45:13.849Z,98.47
2022-08-21T03:45:33.876Z,98.47
2022-08-21T03:45:53.972Z,98.45
2022-08-21T03:46:14.024Z,98.45
2022-08-21T03:46:34.090Z,98.45
2022-08-21T03:46:54.110Z,98.46
2022-08-21T03:47:14.160Z,98.45
2022-08-21T03:47:34.213Z,98.45
2022-08-21T03:47:54.269Z,98.44
2022-08-21T03:48:14.327Z,98.41
2022-08-21T03:48:34.350Z,98.42
2022-08-21T03:48:54.445Z,98.45
2022-08-21T03:49:14.490Z,98.42
2022-08-21T03:49:34.551Z,98.41
2022-08-21T03:49:54.614Z,98.41
2022-08-21T03:50:14.674Z,98.42
2022-08-21T03:50:34.856Z,98.39
2022-08-21T03:50:54.823Z,98.33
2022-08-21T03:51:14.882Z,98.35
2022-08-21T03:51:34.943Z,98.37
2022-08-21T03:51:57.171Z,98.3
2022-08-21T03:52:15.073Z,98.28
2022-08-21T03:52:35.137Z,98.3
2022-08-21T03:52:55.256Z,98.23
2022-08-21T03:53:16.968Z,98.23
2022-08-21T03:53:35.286Z,98.25
2022-08-21T03:53:55.366Z,98.23
2022-08-21T03:54:15.456Z,98.22
2022-08-21T03:54:35.520Z,98.19
2022-08-21T03:54:55.548Z,98.16
2022-08-21T03:55:15.608Z,98.18
2022-08-21T03:55:35.717Z,98.16
2022-08-21T03:55:55.757Z,98.12
2022-08-21T03:56:15.796Z,98.1
2022-08-21T03:56:35.886Z,98.05
2022-08-21T03:56:55.922Z,98.03
2022-08-21T03:57:15.999Z,98.01
2022-08-21T03:57:36.029Z,97.94
2022-08-21T03:57:56.081Z,97.94
2022-08-21T03:58:17.339Z,97.92
2022-08-21T03:58:36.203Z,97.89
2022-08-21T03:58:56.253Z,97.95
2022-08-21T03:59:16.326Z,97.88
2022-08-21T03:59:36.389Z,97.89
2022-08-21T03:59:56.468Z,97.89
2022-08-21T04:00:16.517Z,97.92
2022-08-21T04:00:36.610Z,97.93
2022-08-21T04:00:56.656Z,97.94
2022-08-21T04:01:16.759Z,97.98
2022-08-21T04:01:36.829Z,97.95
2022-08-21T04:01:56.925Z,98.01
2022-08-21T04:02:16.823Z,97.99
2022-08-21T04:02:36.915Z,98.06
2022-08-21T04:02:57.010Z,98.09
2022-08-21T04:03:17.089Z,98.15
2022-08-21T04:03:37.085Z,98.12
2022-08-21T04:03:57.192Z,98.13
2022-08-21T04:04:17.265Z,98.15
2022-08-21T04:04:37.300Z,98.16
2022-08-21T04:04:57.403Z,98.19
2022-08-21T04:05:17.421Z,98.2
2022-08-21T04:05:37.512Z,98.18
2022-08-21T04:05:57.579Z,98.2
2022-08-21T04:06:17.614Z,98.23
2022-08-21T04:06:38.026Z,98.25
2022-08-21T04:06:57.721Z,98.25
2022-08-21T04:07:17.768Z,98.27
2022-08-21T04:07:37.852Z,98.29
2022-08-21T04:07:57.907Z,98.3
2022-08-21T04:08:17.950Z,98.34
2022-08-21T04:08:38.005Z,98.34
2022-08-21T04:08:58.084Z,98.35
2022-08-21T04:09:18.136Z,98.38
2022-08-21T04:09:38.186Z,98.39
2022-08-21T04:09:58.246Z,98.42
2022-08-21T04:10:18.301Z,98.44
2022-08-21T04:10:38.358Z,98.48
2022-08-21T04:10:58.431Z,98.53
2022-08-21T04:11:18.479Z,98.54
2022-08-21T04:11:38.543Z,98.57
2022-08-21T04:11:58.614Z,98.61
2022-08-21T04:12:18.650Z,98.63
2022-08-21T04:12:38.681Z,98.64
2022-08-21T04:12:59.020Z,98.6
2022-08-21T04:13:18.830Z,98.63
2022-08-21T04:13:44.445Z,98.62
2022-08-21T04:13:58.925Z,98.63
2022-08-21T04:14:18.988Z,98.63
2022-08-21T04:14:39.064Z,98.61
2022-08-21T04:14:59.102Z,98.65
2022-08-21T04:15:19.187Z,98.63
2022-08-21T04:15:39.270Z,98.67
2022-08-21T04:15:59.348Z,98.61
2022-08-21T04:16:19.431Z,98.65
2022-08-21T04:16:39.483Z,98.64
2022-08-21T04:16:59.534Z,98.63
2022-08-21T04:17:19.600Z,98.7
2022-08-21T04:17:39.649Z,98.68
2022-08-21T04:17:59.717Z,98.71
2022-08-21T04:18:19.796Z,98.71
2022-08-21T04:18:39.849Z,98.74
2022-08-21T04:18:59.916Z,98.74
2022-08-21T04:19:19.969Z,98.73
2022-08-21T04:19:40.038Z,98.78
2022-08-21T04:20:00.099Z,98.77
2022-08-21T04:20:20.133Z,98.78
2022-08-21T04:20:40.215Z,98.77
2022-08-21T04:21:00.255Z,98.79
2022-08-21T04:21:20.317Z,98.78